Time;durP1;ratioP1;P1;durP2;ratioP2;P2;SDS_P1;SDS_P2;PMS_P1;PMS_P2;Temp;Humidity;BMP_temperature;BMP_pressure;BME280_temperature;BME280_humidity;BME280_pressure;Samples;Min_cycle;Max_cycle;Signal;HPM_P1;HPM_P2
2021/03/16 00:01:48;;;;;;;5.13;4.70;;;;;;;;;;10318292;28;20355;-57
2021/03/16 00:06:47;;;;;;;17.42;13.73;;;;;;;;;;10316498;28;20155;-55
2021/03/16 00:11:44;;;;;;;5.03;4.63;;;;;;;;;;10316533;28;20044;-57
2021/03/16 00:16:41;;;;;;;5.22;4.43;;;;;;;;;;10317079;28;20056;-56
2021/03/16 00:21:38;;;;;;;5.25;4.85;;;;;;;;;;10317259;28;20080;-57
2021/03/16 00:26:37;;;;;;;4.88;4.43;;;;;;;;;;10317520;28;20045;-57
2021/03/16 00:31:34;;;;;;;4.18;3.55;;;;;;;;;;10316391;28;20053;-57
2021/03/16 00:36:33;;;;;;;3.40;3.20;;;;;;;;;;10315273;28;20484;-56
2021/03/16 00:41:30;;;;;;;9.80;6.40;;;;;;;;;;10317113;28;20087;-57
2021/03/16 00:46:28;;;;;;;5.57;3.95;;;;;;;;;;10327123;28;20268;-58
2021/03/16 00:51:26;;;;;;;4.22;3.92;;;;;;;;;;10316965;28;20049;-55
2021/03/16 00:56:23;;;;;;;4.28;3.70;;;;;;;;;;10316558;28;20041;-55
2021/03/16 01:01:20;;;;;;;4.32;3.92;;;;;;;;;;10316644;28;20111;-55
2021/03/16 01:06:19;;;;;;;5.65;4.55;;;;;;;;;;10316200;28;20048;-57
2021/03/16 01:11:16;;;;;;;4.53;4.22;;;;;;;;;;10316329;28;20040;-55
2021/03/16 01:16:13;;;;;;;4.78;4.38;;;;;;;;;;10327427;28;20077;-57
2021/03/16 01:21:11;;;;;;;4.85;4.45;;;;;;;;;;10327053;28;20079;-57
2021/03/16 01:26:09;;;;;;;5.07;4.70;;;;;;;;;;10320141;28;20520;-58
2021/03/16 01:31:07;;;;;;;5.60;5.00;;;;;;;;;;10334313;28;20083;-59
2021/03/16 01:36:05;;;;;;;5.57;5.07;;;;;;;;;;10322893;28;20048;-59
2021/03/16 01:41:02;;;;;;;5.20;4.75;;;;;;;;;;10322839;28;20524;-60
2021/03/16 01:46:01;;;;;;;5.55;4.45;;;;;;;;;;10322594;28;20079;-57
2021/03/16 01:50:59;;;;;;;6.65;6.03;;;;;;;;;;10322441;28;20087;-57
2021/03/16 01:55:58;;;;;;;5.07;4.68;;;;;;;;;;10322243;28;20246;-56
2021/03/16 02:01:14;;;;;;;8.82;7.10;;;;;;;;;;10336939;28;20087;-57
2021/03/16 02:06:32;;;;;;;6.03;5.53;;;;;;;;;;10321325;28;20075;-59
2021/03/16 02:11:49;;;;;;;5.95;5.40;;;;;;;;;;10322814;28;20090;-56
2021/03/16 02:17:08;;;;;;;5.10;4.70;;;;;;;;;;10321436;28;20048;-55
2021/03/16 02:22:26;;;;;;;7.47;6.80;;;;;;;;;;10332681;28;20082;-57
2021/03/16 02:27:46;;;;;;;9.07;8.10;;;;;;;;;;10331714;28;20088;-54
2021/03/16 02:33:05;;;;;;;5.95;5.45;;;;;;;;;;10330829;28;20106;-56
2021/03/16 02:38:23;;;;;;;7.63;6.40;;;;;;;;;;10330051;28;20075;-57
2021/03/16 02:43:38;;;;;;;8.30;7.50;;;;;;;;;;10328428;28;20532;-55
2021/03/16 02:48:55;;;;;;;8.35;7.60;;;;;;;;;;10339451;28;20084;-56
2021/03/16 02:54:12;;;;;;;6.80;6.20;;;;;;;;;;10327176;28;20079;-57
2021/03/16 02:59:28;;;;;;;5.93;5.43;;;;;;;;;;10326170;28;20055;-57
2021/03/16 03:04:46;;;;;;;5.60;5.20;;;;;;;;;;10324832;28;20430;-57
2021/03/16 03:10:02;;;;;;;6.82;6.35;;;;;;;;;;10323800;28;20492;-56
2021/03/16 03:15:18;;;;;;;8.23;7.53;;;;;;;;;;10335327;28;20460;-57
2021/03/16 03:20:34;;;;;;;9.02;8.23;;;;;;;;;;10322012;28;20115;-56
2021/03/16 03:25:53;;;;;;;6.95;6.35;;;;;;;;;;10321169;28;20087;-57
2021/03/16 03:31:10;;;;;;;7.07;6.38;;;;;;;;;;10319456;28;20091;-55
2021/03/16 03:36:27;;;;;;;7.55;6.75;;;;;;;;;;10319715;28;20071;-58
2021/03/16 03:41:43;;;;;;;8.20;7.40;;;;;;;;;;10318318;28;20091;-56
2021/03/16 03:46:59;;;;;;;6.97;6.38;;;;;;;;;;10318095;28;20538;-57
2021/03/16 03:52:18;;;;;;;6.00;5.50;;;;;;;;;;10317399;28;20087;-56
2021/03/16 03:57:35;;;;;;;5.68;5.18;;;;;;;;;;10328319;28;20095;-56
2021/03/16 04:02:52;;;;;;;7.22;5.18;;;;;;;;;;10327564;28;20091;-56
2021/03/16 04:08:10;;;;;;;6.97;6.32;;;;;;;;;;10326691;28;20055;-57
2021/03/16 04:13:25;;;;;;;6.47;5.88;;;;;;;;;;10329568;28;20086;-56
2021/03/16 04:18:41;;;;;;;;;;;;;;;;;;10351922;28;20079;-55
2021/03/16 04:23:57;;;;;;;7.50;6.80;;;;;;;;;;10344577;28;19955;-57
2021/03/16 04:29:13;;;;;;;9.77;8.70;;;;;;;;;;10344144;28;20094;-56
2021/03/16 04:34:29;;;;;;;6.25;5.65;;;;;;;;;;10343360;28;20082;-58
2021/03/16 04:39:46;;;;;;;9.65;8.70;;;;;;;;;;10329135;28;20079;-57
2021/03/16 04:45:03;;;;;;;11.63;8.57;;;;;;;;;;10326860;28;20083;-57
2021/03/16 04:50:18;;;;;;;12.23;9.52;;;;;;;;;;10335504;28;20771;-56
2021/03/16 04:55:34;;;;;;;;;;;;;;;;;;10350349;28;20076;-56
2021/03/16 05:00:51;;;;;;;6.00;5.40;;;;;;;;;;10361446;28;19963;-53
2021/03/16 05:06:07;;;;;;;8.32;7.03;;;;;;;;;;10366064;28;20059;-56
2021/03/16 05:11:22;;;;;;;9.50;7.85;;;;;;;;;;10366313;28;20083;-57
2021/03/16 05:16:39;;;;;;;9.70;7.53;;;;;;;;;;10341344;28;20083;-55
2021/03/16 05:21:55;;;;;;;4.65;4.07;;;;;;;;;;10329262;28;20083;-56
2021/03/16 05:27:11;;;;;;;;;;;;;;;;;;10341815;28;20585;-57
2021/03/16 05:32:27;;;;;;;4.32;3.88;;;;;;;;;;10372566;28;19920;-57
2021/03/16 05:37:43;;;;;;;6.65;6.00;;;;;;;;;;10334095;28;20095;-56
2021/03/16 05:42:59;;;;;;;5.85;5.25;;;;;;;;;;10332710;28;20505;-56
2021/03/16 05:48:16;;;;;;;6.38;4.65;;;;;;;;;;10340596;28;20488;-56
2021/03/16 05:53:32;;;;;;;6.07;5.47;;;;;;;;;;10341613;28;20476;-56
2021/03/16 05:58:48;;;;;;;8.73;7.50;;;;;;;;;;10328405;28;20082;-58
2021/03/16 06:04:03;;;;;;;;;;;;;;;;;;10327770;28;20488;-56
2021/03/16 06:09:20;;;;;;;7.25;6.55;;;;;;;;;;10326697;28;19924;-57
2021/03/16 06:14:36;;;;;;;7.82;7.03;;;;;;;;;;10327426;28;20406;-58
2021/03/16 06:19:51;;;;;;;;;;;;;;;;;;10327262;28;20410;-57
2021/03/16 06:25:08;;;;;;;4.55;4.15;;;;;;;;;;10325460;28;19920;-58
2021/03/16 06:30:24;;;;;;;23.63;11.30;;;;;;;;;;10324052;28;20064;-57
2021/03/16 06:35:40;;;;;;;;;;;;;;;;;;10324707;28;20537;-56
2021/03/16 06:41:06;;;;;;;6.78;5.38;;;;;;;;;;10323095;28;19971;-58
2021/03/16 06:46:29;;;;;;;5.47;4.97;;;;;;;;;;10322045;28;20516;-57
2021/03/16 06:51:46;;;;;;;4.68;4.28;;;;;;;;;;10321485;28;20059;-58
2021/03/16 06:57:02;;;;;;;8.70;6.50;;;;;;;;;;10320029;28;20060;-57
2021/03/16 07:02:18;;;;;;;8.88;8.07;;;;;;;;;;10318872;28;20095;-57
2021/03/16 07:07:35;;;;;;;7.25;6.55;;;;;;;;;;10330950;28;20401;-57
2021/03/16 07:12:53;;;;;;;13.75;11.32;;;;;;;;;;10329952;28;20095;-56
2021/03/16 07:18:10;;;;;;;10.18;8.95;;;;;;;;;;10328975;28;20087;-57
2021/03/16 07:23:27;;;;;;;6.82;6.13;;;;;;;;;;10326818;28;20099;-57
2021/03/16 07:28:44;;;;;;;6.15;5.25;;;;;;;;;;10326081;28;20090;-57
2021/03/16 07:34:00;;;;;;;7.25;5.90;;;;;;;;;;10326161;28;20095;-58
2021/03/16 07:39:18;;;;;;;7.18;6.43;;;;;;;;;;10325360;28;20068;-57
2021/03/16 07:44:42;;;;;;;12.60;10.05;;;;;;;;;;10323794;28;20083;-58
2021/03/16 07:50:00;;;;;;;12.77;10.15;;;;;;;;;;10318410;28;20041;-57
2021/03/16 07:55:24;;;;;;;8.60;7.63;;;;;;;;;;10322094;28;20084;-56
2021/03/16 08:00:40;;;;;;;8.95;7.95;;;;;;;;;;10319388;28;20098;-57
2021/03/16 08:05:56;;;;;;;22.88;16.42;;;;;;;;;;10320097;28;20086;-57
2021/03/16 08:11:12;;;;;;;19.20;17.25;;;;;;;;;;10319028;28;20083;-57
2021/03/16 08:16:36;;;;;;;12.90;11.63;;;;;;;;;;10318643;28;20052;-59
2021/03/16 08:21:56;;;;;;;9.20;7.57;;;;;;;;;;10317752;28;20092;-60
2021/03/16 08:27:13;;;;;;;11.52;9.93;;;;;;;;;;10316963;28;20119;-58
2021/03/16 08:32:29;;;;;;;8.63;7.72;;;;;;;;;;10328420;28;20418;-56
2021/03/16 08:37:50;;;;;;;14.73;12.35;;;;;;;;;;10333878;28;20087;-57
2021/03/16 08:43:10;;;;;;;31.85;20.45;;;;;;;;;;10334540;28;20502;-58
2021/03/16 08:48:28;;;;;;;13.07;9.93;;;;;;;;;;10334053;28;20048;-58
2021/03/16 08:53:45;;;;;;;11.23;9.35;;;;;;;;;;10333164;28;20045;-57
2021/03/16 08:59:02;;;;;;;14.23;11.38;;;;;;;;;;10331639;28;20075;-56
2021/03/16 09:04:35;;;;;;;15.43;12.68;;;;;;;;;;10329936;28;20494;-56
2021/03/16 09:09:51;;;;;;;10.73;8.85;;;;;;;;;;10329648;28;20044;-58
2021/03/16 09:15:07;;;;;;;13.43;12.02;;;;;;;;;;10328931;28;20048;-57
2021/03/16 09:20:25;;;;;;;17.10;15.20;;;;;;;;;;10327847;28;20485;-58
2021/03/16 09:25:42;;;;;;;20.23;12.77;;;;;;;;;;10326247;28;20060;-57
2021/03/16 09:30:57;;;;;;;58.72;37.60;;;;;;;;;;10324438;28;20048;-58
2021/03/16 09:36:25;;;;;;;43.70;28.27;;;;;;;;;;10325044;28;20052;-59
2021/03/16 09:42:00;;;;;;;22.33;15.93;;;;;;;;;;10321701;28;20130;-58
2021/03/16 09:46:57;;;;;;;21.38;19.08;;;;;;;;;;10321256;28;20257;-59
2021/03/16 09:52:01;;;;;;;33.58;26.27;;;;;;;;;;10321789;28;20063;-58
2021/03/16 09:56:58;;;;;;;53.38;32.92;;;;;;;;;;10321354;28;20055;-58
2021/03/16 10:02:00;;;;;;;24.92;20.50;;;;;;;;;;10320990;28;20544;-57
2021/03/16 10:06:59;;;;;;;28.33;19.67;;;;;;;;;;10320980;28;20056;-59
2021/03/16 10:11:56;;;;;;;56.70;31.40;;;;;;;;;;10321057;28;20100;-56
2021/03/16 10:16:54;;;;;;;34.97;22.55;;;;;;;;;;10320555;28;20048;-54
2021/03/16 10:21:51;;;;;;;48.92;31.83;;;;;;;;;;10320327;28;20076;-59
2021/03/16 10:26:55;;;;;;;18.67;13.35;;;;;;;;;;10320059;28;20537;-59
2021/03/16 10:31:52;;;;;;;11.10;8.88;;;;;;;;;;10320436;28;20080;-59
2021/03/16 10:36:50;;;;;;;84.38;44.58;;;;;;;;;;10320473;28;20419;-59
2021/03/16 10:41:48;;;;;;;58.63;31.25;;;;;;;;;;10319538;28;20079;-55
2021/03/16 10:46:46;;;;;;;37.95;26.30;;;;;;;;;;10319428;28;20068;-57
2021/03/16 10:51:44;;;;;;;62.97;33.22;;;;;;;;;;10320253;28;20040;-57
2021/03/16 10:56:41;;;;;;;100.93;47.53;;;;;;;;;;10319939;28;20040;-58
2021/03/16 11:01:38;;;;;;;175.60;82.28;;;;;;;;;;10318599;28;20095;-58
2021/03/16 11:06:37;;;;;;;97.30;48.88;;;;;;;;;;10319712;28;20524;-57
2021/03/16 11:11:34;;;;;;;156.05;78.70;;;;;;;;;;10319687;28;20493;-57
2021/03/16 11:16:31;;;;;;;107.40;59.70;;;;;;;;;;10325663;28;20039;-57
2021/03/16 11:21:29;;;;;;;92.35;52.38;;;;;;;;;;10357764;28;20064;-56
2021/03/16 11:26:27;;;;;;;57.67;29.75;;;;;;;;;;10355125;28;20067;-58
2021/03/16 11:31:24;;;;;;;100.43;47.28;;;;;;;;;;10356980;28;20079;-57
2021/03/16 11:36:47;;;;;;;108.05;53.35;;;;;;;;;;10358608;28;20470;-59
2021/03/16 11:42:03;;;;;;;;;;;;;;;;;;10357163;28;20083;-57
2021/03/16 11:47:20;;;;;;;47.10;23.00;;;;;;;;;;10354821;28;20372;-58
2021/03/16 11:52:35;;;;;;;33.38;22.23;;;;;;;;;;10365959;28;20458;-58
2021/03/16 11:57:51;;;;;;;41.70;28.98;;;;;;;;;;10364309;28;20083;-57
2021/03/16 12:03:08;;;;;;;51.50;30.25;;;;;;;;;;10365628;28;20525;-58
2021/03/16 12:08:24;;;;;;;90.10;42.42;;;;;;;;;;10363716;28;20063;-57
2021/03/16 12:13:40;;;;;;;;;;;;;;;;;;10363540;28;20052;-57
2021/03/16 12:18:56;;;;;;;107.50;50.05;;;;;;;;;;10361512;28;19955;-57
2021/03/16 12:24:12;;;;;;;132.73;67.70;;;;;;;;;;10362353;28;20084;-57
2021/03/16 12:29:28;;;;;;;21.80;13.30;;;;;;;;;;10360235;28;20075;-54
2021/03/16 12:34:45;;;;;;;75.70;43.67;;;;;;;;;;10354252;28;20131;-57
2021/03/16 12:40:03;;;;;;;119.75;68.13;;;;;;;;;;10358246;28;20080;-56
2021/03/16 12:45:18;;;;;;;58.97;32.83;;;;;;;;;;10357044;28;20075;-56
2021/03/16 12:50:35;;;;;;;61.92;37.85;;;;;;;;;;10358781;28;20072;-57
2021/03/16 12:55:51;;;;;;;86.00;40.33;;;;;;;;;;10357461;28;20064;-57
2021/03/16 13:01:08;;;;;;;49.53;29.33;;;;;;;;;;10354513;28;20490;-56
2021/03/16 13:06:25;;;;;;;183.13;89.80;;;;;;;;;;10354714;28;20067;-56
2021/03/16 13:11:41;;;;;;;42.53;27.65;;;;;;;;;;10353396;28;20076;-56
2021/03/16 13:16:56;;;;;;;57.30;35.03;;;;;;;;;;10355177;28;20168;-58
2021/03/16 13:22:12;;;;;;;;;;;;;;;;;;10356075;28;20517;-56
2021/03/16 13:27:29;;;;;;;50.78;26.80;;;;;;;;;;10372068;28;20377;-56
2021/03/16 13:32:45;;;;;;;59.97;31.42;;;;;;;;;;10370726;28;20079;-55
2021/03/16 13:38:21;;;;;;;106.07;53.60;;;;;;;;;;10370592;28;20071;-58
2021/03/16 13:43:37;;;;;;;127.53;84.68;;;;;;;;;;10369167;28;20079;-56
2021/03/16 13:48:53;;;;;;;38.33;21.23;;;;;;;;;;10367618;28;20071;-56
2021/03/16 13:54:08;;;;;;;106.30;53.92;;;;;;;;;;10366420;28;20079;-58
2021/03/16 13:59:25;;;;;;;127.30;67.75;;;;;;;;;;10367750;28;20064;-55
2021/03/16 14:04:42;;;;;;;74.85;36.33;;;;;;;;;;10364967;28;20075;-57
2021/03/16 14:09:58;;;;;;;87.38;51.40;;;;;;;;;;10364763;28;20075;-58
2021/03/16 14:15:14;;;;;;;87.97;55.95;;;;;;;;;;10362968;28;20083;-57
2021/03/16 14:20:32;;;;;;;66.57;32.13;;;;;;;;;;10360978;28;20075;-56
2021/03/16 14:25:48;;;;;;;86.60;46.50;;;;;;;;;;10362499;28;20501;-57
2021/03/16 14:31:04;;;;;;;66.03;54.83;;;;;;;;;;10360072;28;20079;-56
2021/03/16 14:36:20;;;;;;;54.90;40.83;;;;;;;;;;10359965;28;20075;-59
2021/03/16 14:41:36;;;;;;;;;;;;;;;;;;10359004;28;20075;-57
2021/03/16 14:46:53;;;;;;;154.18;107.32;;;;;;;;;;10357671;28;19959;-56
2021/03/16 14:52:09;;;;;;;85.60;52.63;;;;;;;;;;10358774;28;20059;-58
2021/03/16 14:57:26;;;;;;;44.97;33.25;;;;;;;;;;10369439;28;20494;-56
2021/03/16 15:02:42;;;;;;;51.03;40.70;;;;;;;;;;10367940;28;20104;-56
2021/03/16 15:07:58;;;;;;;44.25;35.35;;;;;;;;;;10366291;28;20490;-57
2021/03/16 15:13:14;;;;;;;199.18;105.45;;;;;;;;;;10365169;28;20075;-57
2021/03/16 15:18:31;;;;;;;50.70;26.83;;;;;;;;;;10365742;28;20063;-57
2021/03/16 15:23:46;;;;;;;111.43;50.67;;;;;;;;;;10364376;28;20580;-56
2021/03/16 15:29:03;;;;;;;871.42;401.30;;;;;;;;;;10352880;28;20094;-58
2021/03/16 15:34:23;;;;;;;52.97;36.33;;;;;;;;;;10354068;28;20064;-56
2021/03/16 15:39:39;;;;;;;148.75;70.70;;;;;;;;;;10358512;28;20040;-57
2021/03/16 15:44:55;;;;;;;;;;;;;;;;;;10361188;28;20493;-57
2021/03/16 15:50:11;;;;;;;135.27;61.95;;;;;;;;;;10353178;28;19944;-58
2021/03/16 15:55:27;;;;;;;860.05;339.50;;;;;;;;;;10356438;28;20084;-57
2021/03/16 16:00:43;;;;;;;130.13;49.97;;;;;;;;;;10354091;28;20072;-56
2021/03/16 16:05:59;;;;;;;;;;;;;;;;;;10356832;28;20067;-57
2021/03/16 16:11:15;;;;;;;42.42;23.73;;;;;;;;;;10357157;28;19963;-58
2021/03/16 16:16:31;;;;;;;182.88;68.15;;;;;;;;;;10355914;28;20087;-56
2021/03/16 16:21:47;;;;;;;120.68;61.60;;;;;;;;;;10354446;28;20063;-56
2021/03/16 16:27:03;;;;;;;;;;;;;;;;;;10356125;28;20044;-57
2021/03/16 16:32:20;;;;;;;150.60;56.45;;;;;;;;;;10354900;28;19952;-57
2021/03/16 16:37:37;;;;;;;100.65;41.08;;;;;;;;;;10358000;28;20071;-57
2021/03/16 16:42:53;;;;;;;32.75;14.80;;;;;;;;;;10364150;28;20505;-56
2021/03/16 16:48:09;;;;;;;40.45;19.02;;;;;;;;;;10358932;28;20451;-54
2021/03/16 16:53:25;;;;;;;14.70;9.52;;;;;;;;;;10358266;28;20072;-55
2021/03/16 16:58:41;;;;;;;68.72;36.33;;;;;;;;;;10367472;28;20063;-56
2021/03/16 17:03:58;;;;;;;37.20;22.77;;;;;;;;;;10364408;28;20067;-57
2021/03/16 17:09:14;;;;;;;190.00;113.15;;;;;;;;;;10359146;28;20071;-57
2021/03/16 17:14:29;;;;;;;;;;;;;;;;;;10363588;28;20079;-58
2021/03/16 17:19:46;;;;;;;132.35;79.05;;;;;;;;;;10363821;28;19959;-56
2021/03/16 17:25:06;;;;;;;74.13;58.17;;;;;;;;;;10363932;28;20080;-58
2021/03/16 17:30:22;;;;;;;55.42;41.60;;;;;;;;;;10364259;28;20540;-58
2021/03/16 17:35:40;;;;;;;218.23;109.40;;;;;;;;;;10364886;28;20079;-58
2021/03/16 17:40:57;;;;;;;74.53;49.28;;;;;;;;;;10360783;28;20068;-54
2021/03/16 17:46:12;;;;;;;;;;;;;;;;;;10360279;28;20127;-57
2021/03/16 17:51:29;;;;;;;168.88;93.13;;;;;;;;;;10360155;28;19956;-58
2021/03/16 17:56:45;;;;;;;126.68;76.53;;;;;;;;;;10355618;28;20683;-54
2021/03/16 18:02:01;;;;;;;49.90;41.50;;;;;;;;;;10358967;28;20675;-55
2021/03/16 18:07:19;;;;;;;57.15;44.20;;;;;;;;;;10357187;28;20071;-53
2021/03/16 18:12:35;;;;;;;71.40;50.72;;;;;;;;;;10365924;28;20072;-59
2021/03/16 18:17:50;;;;;;;118.47;73.68;;;;;;;;;;10370144;28;20067;-56
2021/03/16 18:23:06;;;;;;;;;;;;;;;;;;10365974;28;20162;-56
2021/03/16 18:28:22;;;;;;;62.60;39.63;;;;;;;;;;10362819;28;19963;-52
2021/03/16 18:33:39;;;;;;;98.88;53.55;;;;;;;;;;10361510;28;20064;-58
2021/03/16 18:38:55;;;;;;;33.55;28.27;;;;;;;;;;10362606;28;20462;-57
2021/03/16 18:44:11;;;;;;;;;;;;;;;;;;10362271;28;20091;-56
2021/03/16 18:49:30;;;;;;;38.20;27.77;;;;;;;;;;10363876;28;19959;-55
2021/03/16 18:54:46;;;;;;;50.45;37.80;;;;;;;;;;10362572;28;20497;-56
2021/03/16 19:00:02;;;;;;;35.05;26.08;;;;;;;;;;10361142;28;20068;-55
2021/03/16 19:05:18;;;;;;;23.92;19.23;;;;;;;;;;10353848;28;20075;-58
2021/03/16 19:10:35;;;;;;;52.63;28.58;;;;;;;;;;10349310;28;20068;-54
2021/03/16 19:15:51;;;;;;;42.25;26.15;;;;;;;;;;10352166;28;20071;-56
2021/03/16 19:21:09;;;;;;;28.00;18.77;;;;;;;;;;10346311;28;20072;-54
2021/03/16 19:26:25;;;;;;;23.35;15.80;;;;;;;;;;10350032;28;20075;-51
2021/03/16 19:31:40;;;;;;;;;;;;;;;;;;10352461;28;20072;-54
2021/03/16 19:36:57;;;;;;;37.67;23.63;;;;;;;;;;10350696;28;19959;-54
2021/03/16 19:42:13;;;;;;;44.25;29.25;;;;;;;;;;10355280;28;20067;-54
2021/03/16 19:47:29;;;;;;;36.63;22.23;;;;;;;;;;10356979;28;20064;-54
2021/03/16 19:52:44;;;;;;;;;;;;;;;;;;10362939;28;20533;-56
2021/03/16 19:58:01;;;;;;;17.50;12.85;;;;;;;;;;10361165;28;19951;-55
2021/03/16 20:03:17;;;;;;;20.95;15.80;;;;;;;;;;10342200;28;20145;-57
2021/03/16 20:08:33;;;;;;;19.38;15.10;;;;;;;;;;10355280;28;20075;-56
2021/03/16 20:13:53;;;;;;;28.15;17.38;;;;;;;;;;10356341;28;20075;-56
2021/03/16 20:19:09;;;;;;;26.90;17.88;;;;;;;;;;10362036;28;20076;-58
2021/03/16 20:24:25;;;;;;;13.48;9.85;;;;;;;;;;10360864;28;20079;-55
2021/03/16 20:29:41;;;;;;;;;;;;;;;;;;10357419;28;20071;-56
2021/03/16 20:34:57;;;;;;;28.58;20.23;;;;;;;;;;10353509;28;19947;-55
2021/03/16 20:40:14;;;;;;;44.38;28.02;;;;;;;;;;10332924;28;20494;-55
2021/03/16 20:45:30;;;;;;;28.30;16.40;;;;;;;;;;10343443;28;20075;-57
2021/03/16 20:50:47;;;;;;;47.08;23.65;;;;;;;;;;10343053;28;20494;-56
2021/03/16 20:56:03;;;;;;;25.67;17.90;;;;;;;;;;10355619;28;20080;-57
2021/03/16 21:01:19;;;;;;;81.35;41.75;;;;;;;;;;10344758;28;20079;-57
2021/03/16 21:06:37;;;;;;;46.75;26.92;;;;;;;;;;10350538;28;20068;-56
2021/03/16 21:11:53;;;;;;;23.23;14.25;;;;;;;;;;10351041;28;20553;-57
2021/03/16 21:17:08;;;;;;;;;;;;;;;;;;10338160;28;20529;-56
2021/03/16 21:22:25;;;;;;;42.83;22.98;;;;;;;;;;10357472;28;19967;-57
2021/03/16 21:27:42;;;;;;;83.45;34.85;;;;;;;;;;10364590;28;20075;-55
2021/03/16 21:32:59;;;;;;;;;;;;;;;;;;10364447;28;20075;-56
2021/03/16 21:38:16;;;;;;;92.90;42.13;;;;;;;;;;10362719;28;20168;-57
2021/03/16 21:43:32;;;;;;;72.03;36.50;;;;;;;;;;10363289;28;20083;-57
2021/03/16 21:48:48;;;;;;;63.10;33.88;;;;;;;;;;10367867;28;20067;-57
2021/03/16 21:54:05;;;;;;;38.55;19.15;;;;;;;;;;10366333;28;20068;-57
2021/03/16 21:59:23;;;;;;;85.95;41.97;;;;;;;;;;10361393;28;20080;-56
2021/03/16 22:04:39;;;;;;;29.20;17.40;;;;;;;;;;10363850;28;20076;-56
2021/03/16 22:09:55;;;;;;;;;;;;;;;;;;10362641;28;20063;-56
2021/03/16 22:15:19;;;;;;;50.28;30.95;;;;;;;;;;10362407;28;20356;-54
2021/03/16 22:20:35;;;;;;;15.80;11.45;;;;;;;;;;10361808;28;20075;-58
2021/03/16 22:25:51;;;;;;;15.57;11.93;;;;;;;;;;10361352;28;20072;-56
2021/03/16 22:31:07;;;;;;;28.88;18.77;;;;;;;;;;10358755;28;20075;-57
2021/03/16 22:36:23;;;;;;;11.68;7.93;;;;;;;;;;10359050;28;20072;-57
2021/03/16 22:41:39;;;;;;;;;;;;;;;;;;10356164;28;20068;-57
2021/03/16 22:46:55;;;;;;;14.38;9.38;;;;;;;;;;10358599;28;19959;-58
2021/03/16 22:52:11;;;;;;;14.45;10.57;;;;;;;;;;10357776;28;20075;-57
2021/03/16 22:57:27;;;;;;;10.90;8.20;;;;;;;;;;10368471;28;20080;-56
2021/03/16 23:02:43;;;;;;;10.55;7.45;;;;;;;;;;10368855;28;20083;-56
2021/03/16 23:07:59;;;;;;;7.13;6.43;;;;;;;;;;10367593;28;20068;-57
2021/03/16 23:13:15;;;;;;;8.43;7.60;;;;;;;;;;10366392;28;20071;-56
2021/03/16 23:18:32;;;;;;;11.02;9.35;;;;;;;;;;10357865;28;20071;-58
2021/03/16 23:23:47;;;;;;;10.52;9.45;;;;;;;;;;10363382;28;20079;-56
2021/03/16 23:29:03;;;;;;;;;;;;;;;;;;10364212;28;20080;-57
2021/03/16 23:34:19;;;;;;;8.05;6.15;;;;;;;;;;10362205;28;20010;-56
2021/03/16 23:39:35;;;;;;;8.30;7.50;;;;;;;;;;10361711;28;20079;-57
2021/03/16 23:44:51;;;;;;;7.72;5.22;;;;;;;;;;10359800;28;20079;-59
2021/03/16 23:50:11;;;;;;;7.82;6.40;;;;;;;;;;10361003;28;20072;-57
2021/03/16 23:55:28;;;;;;;7.63;6.88;;;;;;;;;;10359777;28;20086;-57
